Latest Weather Observations for Norfolk Island

IDN60801

Issued at 9:33 pm EST Monday 25 July 2016 (issued every 30 minutes, with the page automatically refreshed every 10 minutes)

About weather observations | Map of weather stations | Latest weather observations for NSW | Other Formats
Station Details ID: 200288 Name: NORFOLK ISLAND AERO Lat: -29.04 Lon: 167.94 Height: 111.73 m
Data from the previous 72 hours. | See also: Recent months at Norfolk Island
Date/Time
EST
Temp
°C
App
Temp
°C
Dew
Point
°C
Rel
Hum
%
Delta-T
°C
Wind Press
QNH
hPa
Press
MSL
hPa
Rain since
9am
mm
Dir  Spd
km/h
Gust
km/h
Spd
kts
Gust
kts
25/09:30pm 19.3 17.6 18.2 93 0.7 W 24 35 13 19 1015.7 1015.5 7.4
25/09:16pm 19.3 18.6 18.3 94 0.6 WNW 19 28 10 15 1015.7 1015.5 7.4
25/09:00pm 19.2 17.9 18.1 93 0.7 WNW 22 35 12 19 1015.6 1015.4 7.4
25/08:30pm 19.3 18.4 18.3 94 0.6 WNW 20 37 11 20 1015.6 1015.4 7.4
25/08:14pm 19.0 18.2 18.4 96 0.4 WNW 20 33 11 18 1015.7 1015.5 7.4
25/08:08pm 18.9 17.2 18.1 95 0.5 WNW 24 35 13 19 1015.8 1015.6 7.4
25/08:00pm 18.8 17.5 18.2 96 0.4 W 22 35 12 19 1015.9 1015.7 7.4
25/07:30pm 19.1 17.5 18.3 95 0.5 W 24 33 13 18 1015.9 1015.7 5.8
25/07:19pm 19.9 19.5 19.3 96 0.4 WNW 20 32 11 17 1015.8 1015.6 4.0
25/07:12pm 19.8 19.4 19.0 95 0.5 WNW 19 32 10 17 1015.9 1015.7 4.0
25/07:00pm 19.8 19.8 19.0 95 0.5 WNW 17 28 9 15 1015.9 1015.7 4.0
25/06:35pm 19.7 19.7 18.9 95 0.5 WNW 17 26 9 14 1016.0 1015.8 3.8
25/06:30pm 19.7 19.6 18.7 94 0.6 WNW 17 24 9 13 1015.9 1015.7 3.8
25/06:00pm 19.6 18.8 18.5 93 0.7 W 20 30 11 16 1015.9 1015.7 3.8
25/05:52pm 19.5 18.9 18.5 94 0.6 W 19 28 10 15 1015.8 1015.6 3.8
25/05:30pm 19.8 19.4 19.0 95 0.5 W 19 26 10 14 1015.7 1015.5 3.8
25/05:26pm 19.8 19.3 19.0 95 0.5 W 20 30 11 16 1015.7 1015.5 3.8
25/05:00pm 19.7 19.6 18.7 94 0.6 WNW 17 30 9 16 1015.3 1015.1 3.8
25/04:38pm 19.2 19.2 18.2 94 0.6 WNW 15 20 8 11 1015.0 1014.8 3.8
25/04:30pm 19.1 19.5 18.1 94 0.6 WNW 13 19 7 10 1014.9 1014.7 3.8
25/04:21pm 19.0 19.3 17.9 93 0.7 WNW 13 19 7 10 1015.0 1014.8 3.8
25/04:00pm 18.8 18.4 17.2 90 1.0 WNW 15 22 8 12 1014.8 1014.6 3.6
25/03:58pm 18.8 18.4 17.2 90 1.0 WNW 15 24 8 13 1014.8 1014.6 3.6
25/03:30pm 18.9 18.4 16.8 87 1.3 WNW 15 28 8 15 1014.7 1014.5 3.6
25/03:00pm 19.2 18.8 17.1 88 1.3 WNW 15 22 8 12 1014.6 1014.4 3.6
25/02:35pm 18.4 18.9 17.4 94 0.6 NW 11 17 6 9 1014.7 1014.5 3.6
25/02:30pm 18.4 18.9 17.4 94 0.6 WNW 11 15 6 8 1014.7 1014.5 3.6
25/02:00pm 18.8 18.0 17.2 90 1.0 W 17 26 9 14 1014.8 1014.6 1.8
25/01:48pm 19.6 19.4 17.7 89 1.2 WNW 15 26 8 14 1014.7 1014.5 0.4
25/01:30pm 20.1 20.1 18.0 88 1.3 NW 15 32 8 17 1014.6 1014.4 0.2
25/01:00pm 20.4 20.7 18.0 86 1.5 NW 13 22 7 12 1014.9 1014.7 0.2
25/12:30pm 21.4 21.4 17.3 77 2.5 NW 13 22 7 12 1015.2 1015.0 0.2
25/12:00pm 20.8 20.4 16.3 75 2.7 N 13 17 7 9 1015.4 1015.2 0.2
25/11:30am 20.9 19.6 15.9 73 3.0 NNE 17 26 9 14 1015.8 1015.6 0.2
25/11:00am 20.2 19.5 15.5 74 2.8 N 13 19 7 10 1016.3 1016.1 0.2
25/10:30am 20.5 19.1 15.5 73 3.0 NNE 17 22 9 12 1016.6 1016.4 0.2
25/10:00am 20.0 18.4 14.9 72 3.0 NNE 17 22 9 12 1016.9 1016.7 0.0
25/09:30am 19.6 18.0 15.0 75 2.7 NNE 17 24 9 13 1017.3 1017.1 0.0
25/09:00am 19.7 18.4 14.8 73 2.9 NNE 15 20 8 11 1017.5 1017.3 0.0
25/08:30am 19.7 18.6 15.3 76 2.6 NE 15 20 8 11 1017.5 1017.3 0.0
25/08:00am 19.1 18.2 14.8 76 2.5 NNE 13 17 7 9 1017.5 1017.3 7.6
25/07:30am 18.7 18.6 14.9 78 2.2 NNE 9 13 5 7 1017.6 1017.4 7.4
25/07:00am 17.5 17.3 14.6 83 1.7 NE 9 11 5 6 1017.6 1017.4 7.4
25/06:30am 15.9 15.6 14.5 91 0.8 ENE 9 13 5 7 1017.4 1017.2 7.4
25/06:00am 15.2 15.6 13.8 91 0.8 NE 4 9 2 5 1017.3 1017.1 7.4
25/05:30am 14.9 15.9 13.3 90 0.9 CALM 0 2 0 1 1017.1 1016.9 7.4
25/05:00am 14.9 14.2 13.3 90 0.9 NE 9 11 5 6 1016.8 1016.6 7.4
25/04:30am 14.5 15.0 12.9 90 0.9 S 2 7 1 4 1016.6 1016.4 7.4
25/04:00am 15.7 16.6 12.8 83 1.6 CALM 0 0 0 0 1016.6 1016.4 7.4
25/03:30am 15.4 16.1 12.3 82 1.7 CALM 0 0 0 0 1016.4 1016.2 7.4
25/03:00am 15.2 14.6 12.3 83 1.6 S 7 9 4 5 1016.1 1015.9 7.4
25/02:30am 15.1 15.8 12.2 83 1.6 CALM 0 0 0 0 1016.0 1015.8 7.4
25/02:00am 15.4 16.1 12.3 82 1.7 CALM 0 0 0 0 1016.2 1016.0 7.4
25/01:30am 14.6 14.1 12.0 84 1.4 S 6 7 3 4 1016.2 1016.0 7.4
25/01:00am 14.8 15.6 12.4 85 1.3 CALM 0 0 0 0 1016.4 1016.2 7.4
25/12:30am 14.8 15.5 12.2 84 1.4 CALM 0 0 0 0 1016.7 1016.5 7.4
25/12:00am 14.9 15.6 12.3 84 1.4 CALM 0 0 0 0 1016.8 1016.6 7.4
 
Date/Time
EST
Temp
°C
App
Temp
°C
Dew
Point
°C
Rel
Hum
%
Delta-T
°C
Wind Press
QNH
hPa
Press
MSL
hPa
Rain since
9am
mm
Dir  Spd
km/h
Gust
km/h
Spd
kts
Gust
kts
24/11:30pm 15.3 16.1 12.4 83 1.6 CALM 0 0 0 0 1016.7 1016.5 7.4
24/11:00pm 15.4 16.1 12.3 82 1.7 CALM 0 0 0 0 1016.6 1016.4 7.4
24/10:30pm 15.0 14.4 12.4 84 1.4 S 7 9 4 5 1016.8 1016.6 7.4
24/10:00pm 15.1 14.5 12.2 83 1.6 S 7 11 4 6 1016.7 1016.5 7.4
24/09:30pm 15.2 16.3 13.4 89 1.0 CALM 0 0 0 0 1016.4 1016.2 7.4
24/09:00pm 15.7 16.1 13.8 88 1.1 S 4 9 2 5 1016.4 1016.2 7.4
24/08:30pm 15.3 16.5 13.9 91 0.8 CALM 0 0 0 0 1016.5 1016.3 7.4
24/08:00pm 15.3 16.5 13.9 91 0.8 CALM 0 6 0 3 1016.2 1016.0 7.4
24/07:30pm 15.8 17.2 14.4 91 0.8 CALM 0 0 0 0 1016.1 1015.9 7.4
24/07:00pm 16.5 17.9 14.4 87 1.2 CALM 0 0 0 0 1015.8 1015.6 7.4
24/06:30pm 16.9 16.6 14.5 86 1.4 S 9 11 5 6 1015.7 1015.5 7.4
24/06:00pm 16.3 17.0 14.6 90 1.0 S 4 9 2 5 1015.4 1015.2 7.4
24/05:30pm 17.0 17.1 14.4 85 1.5 S 7 11 4 6 1015.2 1015.0 7.4
24/05:00pm 16.9 16.6 14.3 85 1.5 S 9 11 5 6 1014.9 1014.7 7.4
24/04:30pm 17.2 16.4 13.9 81 1.9 S 11 15 6 8 1014.4 1014.2 7.4
24/04:00pm 18.0 16.9 14.2 78 2.2 S 13 19 7 10 1014.4 1014.2 7.4
24/03:30pm 18.2 17.4 14.0 76 2.4 S 11 17 6 9 1013.7 1013.5 7.4
24/03:00pm 18.8 18.0 15.1 79 2.2 S 13 15 7 8 1013.4 1013.3 7.4
24/02:30pm 18.9 18.2 15.5 80 2.0 S 13 17 7 9 1013.4 1013.3 7.4
24/02:00pm 18.3 17.8 15.9 86 1.4 S 13 17 7 9 1013.7 1013.5 7.4
24/01:54pm 18.2 17.5 16.4 89 1.1 S 15 20 8 11 1013.7 1013.5 7.4
24/01:31pm 18.3 18.0 17.3 94 0.6 SSW 15 20 8 11 1013.4 1013.3 7.4
24/01:30pm 18.3 18.1 17.5 95 0.5 SSW 15 22 8 12 1013.4 1013.3 7.4
24/01:00pm 18.2 18.7 17.4 95 0.5 WSW 11 17 6 9 1013.4 1013.3 7.0
24/12:30pm 18.3 15.9 17.3 94 0.6 WSW 26 35 14 19 1013.2 1013.1 2.6
24/12:09pm 20.1 18.3 18.8 92 0.8 W 26 39 14 21 1013.1 1013.0 0.2
24/12:00pm 20.3 19.7 18.9 92 0.9 W 20 33 11 18 1013.3 1013.2 0.2
24/11:30am 20.4 19.1 19.0 92 0.9 W 24 37 13 20 1013.4 1013.3 0.2
24/11:26am 20.5 19.2 19.1 92 0.9 W 24 37 13 20 1013.5 1013.4 0.2
24/11:14am 20.4 18.3 19.0 92 0.9 W 28 46 15 25 1013.4 1013.3 0.2
24/11:06am 20.5 18.7 18.8 90 1.1 W 26 39 14 21 1013.5 1013.4 0.0
24/11:00am 20.4 18.1 18.5 89 1.2 W 28 37 15 20 1013.8 1013.6 0.0
24/10:30am 20.7 18.0 18.5 87 1.4 W 30 43 16 23 1014.1 1013.9 0.0
24/10:11am 20.5 17.7 18.3 87 1.4 W 30 48 16 26 1014.1 1013.9 0.0
24/10:00am 20.5 17.7 18.3 87 1.4 W 30 43 16 23 1014.2 1014.0 0.0
24/09:30am 20.4 17.6 18.2 87 1.4 W 30 41 16 22 1014.3 1014.1 0.0
24/09:06am 20.3 17.4 18.0 87 1.4 W 30 48 16 26 1014.3 1014.1 0.0
24/09:00am 20.4 18.0 18.2 87 1.4 WNW 28 39 15 21 1014.3 1014.1 0.0
24/08:30am 20.2 17.6 17.8 86 1.5 W 28 43 15 23 1014.1 1013.9 0.0
24/08:00am 20.2 18.3 17.6 85 1.6 WNW 24 39 13 21 1013.9 1013.7 0.6
24/07:30am 20.6 18.6 17.5 82 1.9 WNW 24 35 13 19 1013.9 1013.7 0.6
24/07:00am 20.1 16.9 17.3 84 1.7 WNW 30 48 16 26 1013.7 1013.5 0.6
24/06:30am 19.9 17.3 16.9 83 1.8 W 26 39 14 21 1013.4 1013.3 0.6
24/06:06am 19.8 16.8 16.7 82 1.9 WNW 28 46 15 25 1013.1 1013.0 0.6
24/06:00am 19.8 16.8 16.8 83 1.8 WNW 28 39 15 21 1013.1 1013.0 0.6
24/05:30am 19.7 17.1 16.9 84 1.7 WNW 26 39 14 21 1012.6 1012.5 0.6
24/05:00am 19.6 17.5 17.1 85 1.5 WNW 24 44 13 24 1012.2 1012.1 0.6
24/04:30am 19.5 17.0 17.0 85 1.5 WNW 26 39 14 21 1011.9 1011.8 0.6
24/04:00am 19.3 18.0 17.2 88 1.3 WNW 20 30 11 16 1011.7 1011.6 0.6
24/03:55am 19.3 18.0 17.2 88 1.3 WNW 20 32 11 17 1011.6 1011.5 0.6
24/03:30am 19.3 16.9 17.3 88 1.2 WNW 26 37 14 20 1011.7 1011.6 0.6
24/03:00am 19.3 17.1 17.0 86 1.4 WNW 24 39 13 21 1011.9 1011.8 0.6
24/02:30am 19.4 16.8 16.9 85 1.5 WNW 26 41 14 22 1012.2 1012.1 0.6
24/02:01am 19.4 17.3 17.1 86 1.4 WNW 24 35 13 19 1012.3 1012.2 0.6
24/02:00am 19.4 17.4 17.3 88 1.3 WNW 24 41 13 22 1012.4 1012.3 0.6
24/01:44am 19.3 17.1 17.0 86 1.4 WNW 24 37 13 20 1012.3 1012.2 0.6
24/01:34am 19.6 17.1 17.0 85 1.6 WNW 26 41 14 22 1012.4 1012.3 0.6
24/01:30am 19.5 16.7 17.2 86 1.4 WNW 28 41 15 22 1012.5 1012.4 0.6
24/01:00am 19.5 16.7 17.2 86 1.4 WNW 28 37 15 20 1012.4 1012.3 0.6
24/12:30am 19.5 17.7 17.0 85 1.5 WNW 22 35 12 19 1011.9 1011.8 0.6
24/12:00am 19.5 18.0 16.7 84 1.7 NW 20 39 11 21 1012.1 1012.0 0.6
 
Date/Time
EST
Temp
°C
App
Temp
°C
Dew
Point
°C
Rel
Hum
%
Delta-T
°C
Wind Press
QNH
hPa
Press
MSL
hPa
Rain since
9am
mm
Dir  Spd
km/h
Gust
km/h
Spd
kts
Gust
kts
23/11:30pm 19.8 16.9 15.1 74 2.8 WNW 24 39 13 21 1012.2 1012.1 0.6
23/11:00pm 19.6 17.5 15.2 76 2.6 WNW 20 35 11 19 1012.4 1012.3 0.6
23/10:30pm 19.6 16.4 14.3 71 3.1 WNW 24 43 13 23 1012.5 1012.4 0.6
23/10:00pm 19.8 16.4 14.7 72 3.0 WNW 26 43 14 23 1012.7 1012.6 0.6
23/09:30pm 19.7 16.0 14.9 74 2.8 WNW 28 43 15 23 1013.1 1013.0 0.6
23/09:01pm 19.9 16.2 15.0 73 2.9 WNW 28 46 15 25 1012.9 1012.8 0.6
23/09:00pm 19.8 16.5 14.9 73 2.9 WNW 26 46 14 25 1012.9 1012.8 0.6
23/08:31pm 19.7 15.8 14.4 71 3.1 WNW 28 46 15 25 1013.2 1013.1 0.6
23/08:30pm 19.6 16.0 15.2 76 2.6 WNW 28 37 15 20 1013.2 1013.1 0.6
23/08:00pm 19.1 15.4 15.9 82 1.9 W 30 43 16 23 1013.0 1012.9 0.6
23/07:38pm 19.6 16.1 15.4 77 2.5 WNW 28 48 15 26 1012.9 1012.8 0.6
23/07:30pm 19.8 16.8 14.7 72 3.0 WNW 24 44 13 24 1012.8 1012.7 0.6
23/07:00pm 19.5 14.7 13.0 66 3.7 WNW 30 48 16 26 1013.1 1013.0 0.6
23/06:48pm 19.6 15.3 14.5 72 3.0 W 30 48 16 26 1013.1 1013.0 0.6
23/06:30pm 19.3 16.0 16.0 81 2.0 W 28 37 15 20 1012.9 1012.8 0.6
23/06:00pm 18.6 16.4 16.8 89 1.1 WNW 24 35 13 19 1013.0 1012.9 0.6
23/05:59pm 18.5 16.3 16.8 90 1.0 WNW 24 33 13 18 1013.0 1012.9 0.6
23/05:41pm 17.7 13.6 16.0 90 1.0 W 32 54 17 29 1013.1 1013.0 0.6
23/05:39pm 17.8 13.7 15.9 89 1.1 WNW 32 54 17 29 1013.0 1012.9 0.2
23/05:37pm 18.0 14.6 15.8 87 1.3 WNW 28 54 15 29 1013.1 1013.0 0.2
23/05:30pm 19.8 17.9 16.8 83 1.8 WNW 22 35 12 19 1012.8 1012.7 0.0
23/05:00pm 19.7 17.4 16.6 82 1.9 WNW 24 37 13 20 1012.7 1012.6 0.0
23/04:30pm 19.7 17.4 16.6 82 1.9 WNW 24 35 13 19 1012.3 1012.2 0.0
23/04:00pm 19.7 17.4 16.6 82 1.9 WNW 24 37 13 20 1012.1 1012.0 0.0
23/03:30pm 19.8 17.5 16.7 82 1.9 WNW 24 37 13 20 1012.0 1011.9 0.0
23/03:08pm 19.8 17.1 16.5 81 2.0 WNW 26 41 14 22 1011.8 1011.7 0.0
23/03:00pm 20.1 16.9 16.3 79 2.3 WNW 28 41 15 22 1011.7 1011.6 0.0
23/02:54pm 19.9 17.6 16.6 81 2.0 WNW 24 37 13 20 1011.7 1011.6 0.0
23/02:30pm 20.3 17.9 16.5 79 2.3 WNW 24 39 13 21 1011.6 1011.5 0.0
23/02:00pm 20.2 17.9 16.6 80 2.2 WNW 24 39 13 21 1011.7 1011.6 0.0
23/01:30pm 20.3 17.2 16.5 79 2.3 WNW 28 41 15 22 1011.9 1011.8 0.0
23/01:00pm 20.6 17.4 16.3 76 2.6 WNW 28 44 15 24 1011.9 1011.8 0.0
23/12:30pm 20.3 16.7 16.3 78 2.4 WNW 30 48 16 26 1012.2 1012.1 0.0
23/12:21pm 20.8 17.6 16.2 75 2.8 WNW 28 48 15 26 1012.1 1012.0 0.0
23/12:00pm 20.9 18.4 16.1 74 2.9 WNW 24 35 13 19 1012.4 1012.3 0.0
23/11:42am 21.3 18.9 16.5 74 2.9 WNW 24 35 13 19 1012.5 1012.4 0.0
23/11:30am 20.9 18.5 16.5 76 2.7 WNW 24 44 13 24 1012.6 1012.5 0.0
23/11:08am 20.0 18.0 16.5 80 2.1 WNW 22 35 12 19 1013.1 1013.0 0.0
23/11:00am 20.0 17.7 16.7 81 2.0 WNW 24 33 13 18 1013.2 1013.1 0.0
23/10:54am 20.4 18.5 16.8 80 2.2 WNW 22 33 12 18 1013.3 1013.2 0.0
23/10:38am 20.7 17.7 16.9 79 2.3 WNW 28 43 15 23 1013.5 1013.4 0.0
23/10:36am 20.9 18.4 17.0 78 2.4 WNW 26 43 14 23 1013.7 1013.5 0.0
23/10:30am 20.8 19.0 16.9 78 2.4 WNW 22 35 12 19 1013.8 1013.6 0.0
23/10:09am 21.0 19.8 17.1 78 2.4 WNW 19 28 10 15 1014.0 1013.8 0.0
23/10:00am 21.1 19.8 17.2 78 2.4 WNW 20 32 11 17 1014.1 1013.9 0.0
23/09:30am 20.8 19.4 17.0 79 2.3 WNW 20 35 11 19 1014.6 1014.4 0.0
23/09:00am 20.8 19.3 16.3 75 2.7 WNW 19 33 10 18 1014.8 1014.6 0.0
23/08:30am 20.5 18.0 16.2 76 2.6 WNW 24 33 13 18 1014.9 1014.7 0.0
23/08:00am 19.9 17.9 16.4 80 2.1 WNW 22 32 12 17 1015.1 1014.9 0.8
23/07:30am 19.6 17.7 16.6 83 1.8 WNW 22 35 12 19 1014.8 1014.6 0.8
23/07:12am 19.7 18.3 16.9 84 1.7 WNW 20 32 11 17 1014.8 1014.6 0.8
23/07:02am 19.5 18.6 16.9 85 1.6 WNW 17 28 9 15 1014.7 1014.5 0.8
23/07:00am 19.5 18.2 16.9 85 1.6 WNW 19 30 10 16 1014.7 1014.5 0.8
23/06:30am 19.4 17.3 17.1 86 1.4 WNW 24 35 13 19 1014.8 1014.6 0.8
23/06:00am 19.4 16.9 17.1 86 1.4 W 26 39 14 21 1014.7 1014.5 0.8
23/05:30am 19.4 17.8 17.4 88 1.2 W 22 33 12 18 1014.6 1014.4 0.8
23/05:10am 19.3 18.0 17.3 88 1.2 W 20 33 11 18 1014.3 1014.1 0.8
23/05:00am 19.2 17.1 17.1 88 1.3 WNW 24 35 13 19 1014.2 1014.0 0.8
23/04:40am 19.2 17.1 17.2 88 1.2 WNW 24 33 13 18 1014.1 1013.9 0.8
23/04:30am 19.2 17.2 17.4 89 1.1 WNW 24 37 13 20 1014.0 1013.8 0.8
23/04:00am 19.2 17.2 17.4 89 1.1 WNW 24 35 13 19 1013.8 1013.6 0.8
23/03:30am 19.2 17.3 17.6 90 1.0 W 24 37 13 20 1013.5 1013.4 0.8
23/03:09am 19.1 17.9 17.5 90 1.0 WNW 20 32 11 17 1013.5 1013.4 0.8
23/03:00am 19.0 17.8 17.4 90 1.0 WNW 20 33 11 18 1013.7 1013.5 0.8
23/02:30am 18.9 17.7 17.6 92 0.8 WNW 20 30 11 16 1013.8 1013.6 0.8
23/02:25am 18.8 17.7 17.7 93 0.7 WNW 20 35 11 19 1013.9 1013.7 0.8
23/02:00am 18.6 17.2 17.1 91 0.9 WNW 20 30 11 16 1013.9 1013.7 0.8
23/01:52am 18.1 16.8 16.8 92 0.8 WNW 19 30 10 16 1013.9 1013.7 0.8
23/01:36am 18.1 14.8 16.9 93 0.7 W 30 43 16 23 1014.2 1014.0 0.8
23/01:32am 18.0 15.0 16.8 93 0.7 W 28 43 15 23 1014.2 1014.0 0.8
23/01:31am 18.1 15.1 16.8 92 0.8 W 28 37 15 20 1014.3 1014.1 0.8
23/01:30am 18.3 15.4 17.0 92 0.8 W 28 37 15 20 1014.3 1014.1 0.8
23/01:00am 18.5 15.7 17.2 92 0.8 W 28 54 15 29 1014.2 1014.0 0.6
23/12:58am 18.6 15.8 17.3 92 0.8 W 28 54 15 29 1014.3 1014.1 0.2
23/12:57am 18.8 16.4 17.3 91 0.9 W 26 54 14 29 1014.2 1014.0 0.2
23/12:30am 19.4 17.4 17.3 88 1.3 WNW 24 37 13 20 1014.4 1014.2 0.2
23/12:00am 19.3 17.3 17.3 88 1.2 WNW 24 33 13 18 1014.6 1014.4 0.2
 
Date/Time
EST
Temp
°C
App
Temp
°C
Dew
Point
°C
Rel
Hum
%
Delta-T
°C
Wind Press
QNH
hPa
Press
MSL
hPa
Rain since
9am
mm
Dir  Spd
km/h
Gust
km/h
Spd
kts
Gust
kts
22/11:30pm 19.4 17.7 17.3 88 1.3 WNW 22 33 12 18 1014.7 1014.5 0.2
22/11:00pm 19.5 17.0 17.2 86 1.4 WNW 26 35 14 19 1014.7 1014.5 0.2
22/10:36pm 19.5 17.0 17.0 85 1.5 WNW 26 35 14 19 1014.8 1014.6 0.2
22/10:30pm 19.5 17.3 17.0 85 1.5 W 24 37 13 20 1014.9 1014.7 0.2
22/10:02pm 19.5 17.8 17.2 86 1.4 WNW 22 32 12 17 1015.0 1014.8 0.2
22/10:00pm 19.5 17.8 17.2 86 1.4 WNW 22 32 12 17 1015.0 1014.8 0.2
22/09:30pm 19.5 17.4 17.2 86 1.4 WNW 24 37 13 20 1014.9 1014.7 0.2
22/09:03pm 19.4 18.1 17.3 88 1.3 WNW 20 28 11 15 1014.8 1014.6 0.2
22/09:00pm 19.5 18.2 17.2 86 1.4 WNW 20 30 11 16 1014.8 1014.6 0.2
22/08:30pm 19.4 17.2 16.9 85 1.5 WNW 24 33 13 18 1014.9 1014.7 0.2
22/08:18pm 19.4 18.0 16.9 85 1.5 WNW 20 33 11 18 1014.7 1014.5 0.2
22/08:05pm 19.3 17.1 17.0 86 1.4 WNW 24 33 13 18 1014.7 1014.5 0.2

Other Formats:

Comma delimited format used in spreadsheet applications
http://www.bom.gov.au/fwo/IDN60801/IDN60801.94996.axf

JavaScript Object Notation format (JSON) in row-major order
http://www.bom.gov.au/fwo/IDN60801/IDN60801.94996.json